Skip to main content.
Our real time weather data display below is updated continuously via our 24/7 live data feed.
 TIME   TEMPERATURE   WINDSPEED   DIRECTION   HUMIDITY   BAROMETER   RAINFALL 
4:45 25.0°C (77.0°F) 0.0 kmh (0.0 mph) E 87% 1011.3hPa (29.86 inHg) 0.0mm (0.00 in.)
3:45 24.9°C (76.8 °F) 0.0 kmh (0.0 mph) SSE 93% 1011.2hPa (29.86 inHg) 0.0mm (0.00 in.)
2:45 25.2°C (77.4 °F) 5.6 kmh (3.5 mph) SSW 93% 1011.2hPa (29.86 inHg) 0.0mm (0.00 in.)
1:45 25.4°C (77.7 °F) 1.9 kmh (1.2 mph) W 91% 1011.7hPa (29.88 inHg) 0.0mm (0.00 in.)
12:45 25.4°C (77.7 °F) 0.0 kmh (0.0 mph) W 91% 1011.8hPa (29.88 inHg) 0.0mm (0.00 in.)
11:45 25.7°C (78.3 °F) 0.0 kmh (0.0 mph) W 90% 1011.5hPa (29.87 inHg) 0.0mm (0.00 in.)
10:45 26.0°C (78.8 °F) 0.0 kmh (0.0 mph) W 89% 1011.3hPa (29.86 inHg) 0.0mm (0.00 in.)
9:45 26.0°C (78.8 °F) 3.7 kmh (2.3 mph) N 89% 1011.4hPa (29.87 inHg) 0.0mm (0.00 in.)
8:45 25.9°C (78.6 °F) 5.6 kmh (3.5 mph) NW 91% 1011.0hPa (29.85 inHg) 0.0mm (0.00 in.)
7:45 26.2°C (79.2 °F) 13.0 kmh (8.1 mph) N 89% 1010.7hPa (29.85 inHg) 0.0mm (0.00 in.)
6:45 26.6°C (79.9 °F) 22.2 kmh (13.8 mph) N 86% 1010.9hPa (29.85 inHg) 0.0mm (0.00 in.)
5:45 27.3°C (81.1 °F) 16.7 kmh (10.4 mph) WNW 82% 1011.1hPa (29.86 inHg) 0.0mm (0.00 in.)
4:45 27.3°C (81.1 °F) 20.4 kmh (12.7 mph) NNE 83% 1011.1hPa (29.86 inHg) 0.0mm (0.00 in.)
3:45 27.8°C (82.0 °F) 25.9 kmh (16.1 mph) NNE 78% 1010.9hPa (29.85 inHg) 0.0mm (0.00 in.)
2:45 28.4°C (83.1 °F) 13.0 kmh (8.1 mph) N 76% 1011.2hPa (29.86 inHg) 0.0mm (0.00 in.)
1:45 28.7°C (83.7 °F) 14.8 kmh (9.2 mph) N 72% 1011.6hPa (29.87 inHg) 0.0mm (0.00 in.)
12:45 28.0°C (82.4 °F) 18.5 kmh (11.5 mph) NNE 74% 1011.8hPa (29.88 inHg) 0.0mm (0.00 in.)
11:45 27.3°C (81.1 °F) 14.8 kmh (9.2 mph) NNE 78% 1012.3hPa (29.89 inHg) 0.0mm (0.00 in.)
10:45 27.3°C (81.1 °F) 24.1 kmh (15.0 mph) N 79% 1012.3hPa (29.89 inHg) 0.0mm (0.00 in.)
9:45 26.6°C (79.9 °F) 18.5 kmh (11.5 mph) NNE 81% 1012.2hPa (29.89 inHg) 0.0mm (0.00 in.)
8:45 26.4°C (79.5 °F) 18.5 kmh (11.5 mph) NNE 81% 1012.0hPa (29.88 inHg) 0.0mm (0.00 in.)
7:45 25.4°C (77.7 °F) 25.9 kmh (16.1 mph) N 86% 1012.0hPa (29.88 inHg) 0.0mm (0.00 in.)
6:45 24.9°C (76.8 °F) 22.2 kmh (13.8 mph) N 92% 1012.0hPa (29.88 inHg) 0.0mm (0.00 in.)
5:45 25.0°C (77.0 °F) 7.4 kmh (4.6 mph) NNW 93% 1011.7hPa (29.88 inHg) 0.0mm (0.00 in.)